createdAt,value
2019-04-04T00:00:09.441Z,4.29
2019-04-04T00:01:08.553Z,4.29
2019-04-04T00:02:08.605Z,4.34
2019-04-04T00:03:08.604Z,4.37
2019-04-04T00:04:08.531Z,4.32
2019-04-04T00:05:08.540Z,4.37
2019-04-04T00:06:08.656Z,4.37
2019-04-04T00:07:08.481Z,4.32
2019-04-04T00:08:08.472Z,4.37
2019-04-04T00:09:08.458Z,4.40
2019-04-04T00:10:08.449Z,4.59
2019-04-04T00:11:08.459Z,4.69
2019-04-04T00:12:08.658Z,4.70
2019-04-04T00:13:09.239Z,4.75
2019-04-04T00:14:08.406Z,4.75
2019-04-04T00:15:08.393Z,4.62
2019-04-04T00:16:08.384Z,4.70
2019-04-04T00:17:08.376Z,4.65
2019-04-04T00:18:08.575Z,4.75
2019-04-04T00:19:08.354Z,4.73
2019-04-04T00:20:08.342Z,4.70
2019-04-04T00:21:08.345Z,4.64
2019-04-04T00:22:08.317Z,4.55
2019-04-04T00:23:08.310Z,4.69
2019-04-04T00:24:09.052Z,4.52
2019-04-04T00:25:10.458Z,4.58
2019-04-04T00:26:10.542Z,4.62
2019-04-04T00:27:08.262Z,4.58
2019-04-04T00:28:08.248Z,4.50
2019-04-04T00:29:08.255Z,4.46
2019-04-04T00:30:08.290Z,4.43
2019-04-04T00:31:08.219Z,4.33
2019-04-04T00:32:08.212Z,4.32
2019-04-04T00:33:08.202Z,4.28
2019-04-04T00:34:08.185Z,4.22
2019-04-04T00:35:08.171Z,4.19
2019-04-04T00:36:08.213Z,4.14
2019-04-04T00:37:08.150Z,4.15
2019-04-04T00:38:08.139Z,4.06
2019-04-04T00:39:09.554Z,4.14
2019-04-04T00:40:10.867Z,4.15
2019-04-04T00:41:08.105Z,4.18
2019-04-04T00:42:08.099Z,4.16
2019-04-04T00:43:08.082Z,4.21
2019-04-04T00:44:08.070Z,4.19
2019-04-04T00:45:08.132Z,4.19
2019-04-04T00:46:08.049Z,4.16
2019-04-04T00:47:08.040Z,4.15
2019-04-04T00:48:08.027Z,4.14
2019-04-04T00:49:08.014Z,4.07
2019-04-04T00:50:08.004Z,4.10
2019-04-04T00:51:08.602Z,4.07
2019-04-04T00:52:10.070Z,4.08
2019-04-04T00:53:07.970Z,4.01
2019-04-04T00:54:07.960Z,4.07
2019-04-04T00:55:07.947Z,3.96
2019-04-04T00:56:07.938Z,3.86
2019-04-04T00:57:07.988Z,4.03
2019-04-04T00:58:07.986Z,3.89
2019-04-04T00:59:07.903Z,3.88
2019-04-04T01:00:07.899Z,3.83
2019-04-04T01:01:07.881Z,3.82
2019-04-04T01:02:07.871Z,3.78
2019-04-04T01:03:07.860Z,3.68
2019-04-04T01:04:07.911Z,3.76
2019-04-04T01:05:07.836Z,3.67
2019-04-04T01:06:07.845Z,3.76
2019-04-04T01:07:07.817Z,3.61
2019-04-04T01:08:07.805Z,3.70
2019-04-04T01:09:11.278Z,3.70
2019-04-04T01:10:08.827Z,3.79
2019-04-04T01:11:07.795Z,3.72
2019-04-04T01:12:07.758Z,3.68
2019-04-04T01:13:07.809Z,3.65
2019-04-04T01:14:07.736Z,3.62
2019-04-04T01:15:07.743Z,3.64
2019-04-04T01:16:07.749Z,3.61
2019-04-04T01:17:07.703Z,3.72
2019-04-04T01:18:07.698Z,3.62
2019-04-04T01:19:09.580Z,3.68
2019-04-04T01:20:07.710Z,3.72
2019-04-04T01:21:07.672Z,3.71
2019-04-04T01:22:07.648Z,3.80
2019-04-04T01:23:07.635Z,3.85
2019-04-04T01:24:07.624Z,3.86
2019-04-04T01:25:07.663Z,3.97
2019-04-04T01:26:07.603Z,3.98
2019-04-04T01:27:07.595Z,4.00
2019-04-04T01:28:08.110Z,4.03
2019-04-04T01:29:10.201Z,4.03
2019-04-04T01:30:07.557Z,4.18
2019-04-04T01:31:07.619Z,4.15
2019-04-04T01:32:07.534Z,4.16
2019-04-04T01:33:07.523Z,4.15
2019-04-04T01:34:07.562Z,4.16
2019-04-04T01:35:07.503Z,4.14
2019-04-04T01:36:07.492Z,4.07
2019-04-04T01:37:07.489Z,4.06
2019-04-04T01:38:07.478Z,4.04
2019-04-04T01:39:07.525Z,4.18
2019-04-04T01:40:07.460Z,4.10
2019-04-04T01:41:07.434Z,4.14
2019-04-04T01:42:07.886Z,4.04
2019-04-04T01:43:09.234Z,4.16
2019-04-04T01:44:10.768Z,4.15
2019-04-04T01:45:07.471Z,4.06
2019-04-04T01:46:07.380Z,4.16
2019-04-04T01:47:07.367Z,4.22
2019-04-04T01:48:07.360Z,4.22
2019-04-04T01:49:07.343Z,4.28
2019-04-04T01:50:07.332Z,4.32
2019-04-04T01:51:08.064Z,4.33
2019-04-04T01:52:07.309Z,4.37
2019-04-04T01:53:07.312Z,4.36
2019-04-04T01:54:07.309Z,4.37
2019-04-04T01:55:07.280Z,4.39
2019-04-04T01:56:07.309Z,4.39
2019-04-04T01:57:08.150Z,4.34
2019-04-04T01:58:07.904Z,4.34
2019-04-04T01:59:07.236Z,4.25
2019-04-04T02:00:07.227Z,4.19
2019-04-04T02:01:07.209Z,4.25
2019-04-04T02:02:07.199Z,4.22
2019-04-04T02:03:07.295Z,4.19
2019-04-04T02:04:07.186Z,4.16
2019-04-04T02:05:07.163Z,4.14
2019-04-04T02:06:07.158Z,4.21
2019-04-04T02:07:07.143Z,4.16
2019-04-04T02:08:07.129Z,4.22
2019-04-04T02:09:07.185Z,4.18
2019-04-04T02:10:07.114Z,4.07
2019-04-04T02:11:07.095Z,4.06
2019-04-04T02:12:08.000Z,4.12
2019-04-04T02:13:09.543Z,4.04
2019-04-04T02:14:07.064Z,4.07
2019-04-04T02:15:07.115Z,4.03
2019-04-04T02:16:07.081Z,4.07
2019-04-04T02:17:07.030Z,4.01
2019-04-04T02:18:07.017Z,4.10
2019-04-04T02:19:07.008Z,4.07
2019-04-04T02:20:06.995Z,4.04
2019-04-04T02:21:07.052Z,4.07
2019-04-04T02:22:06.972Z,4.19
2019-04-04T02:23:06.961Z,4.18
2019-04-04T02:24:06.952Z,4.18
2019-04-04T02:25:06.955Z,4.16
2019-04-04T02:26:06.931Z,4.19
2019-04-04T02:27:07.613Z,4.19
2019-04-04T02:28:08.841Z,4.16
2019-04-04T02:29:06.908Z,4.16
2019-04-04T02:30:06.896Z,4.15
2019-04-04T02:31:06.896Z,4.10
2019-04-04T02:32:06.871Z,4.10
2019-04-04T02:33:06.919Z,4.16
2019-04-04T02:34:06.865Z,4.21
2019-04-04T02:35:10.193Z,4.26
2019-04-04T02:36:06.820Z,4.19
2019-04-04T02:37:06.804Z,4.19
2019-04-04T02:38:06.794Z,4.18
2019-04-04T02:39:06.859Z,4.21
2019-04-04T02:40:08.717Z,4.22
2019-04-04T02:41:06.765Z,4.32
2019-04-04T02:42:06.768Z,4.19
2019-04-04T02:43:06.738Z,4.26
2019-04-04T02:44:06.730Z,4.21
2019-04-04T02:45:06.807Z,4.22
2019-04-04T02:46:11.044Z,4.16
2019-04-04T02:47:06.711Z,4.19
2019-04-04T02:48:06.696Z,4.21
2019-04-04T02:49:06.691Z,4.22
2019-04-04T02:50:06.664Z,4.22
2019-04-04T02:51:07.972Z,4.22
2019-04-04T02:52:06.650Z,4.15
2019-04-04T02:53:06.628Z,4.22
2019-04-04T02:54:06.615Z,4.22
2019-04-04T02:55:06.613Z,4.14
2019-04-04T02:56:06.606Z,4.12
2019-04-04T02:57:09.220Z,4.14
2019-04-04T02:58:06.583Z,4.22
2019-04-04T02:59:06.566Z,4.18
2019-04-04T03:00:06.556Z,4.22
2019-04-04T03:01:06.543Z,4.25
2019-04-04T03:02:06.541Z,4.26
2019-04-04T03:03:09.176Z,4.33
2019-04-04T03:04:06.514Z,4.34
2019-04-04T03:05:06.508Z,4.28
2019-04-04T03:06:06.487Z,4.26
2019-04-04T03:07:06.535Z,4.29
2019-04-04T03:08:06.472Z,4.29
2019-04-04T03:09:09.031Z,4.33
2019-04-04T03:10:06.440Z,4.32
2019-04-04T03:11:06.429Z,4.34
2019-04-04T03:12:06.493Z,4.32
2019-04-04T03:13:06.406Z,4.33
2019-04-04T03:14:06.398Z,4.32
2019-04-04T03:15:09.182Z,4.34
2019-04-04T03:16:06.377Z,4.24
2019-04-04T03:17:06.367Z,4.22
2019-04-04T03:18:06.419Z,4.14
2019-04-04T03:19:09.978Z,4.07
2019-04-04T03:20:06.341Z,4.10
2019-04-04T03:21:06.323Z,4.06
2019-04-04T03:22:06.313Z,4.06
2019-04-04T03:23:06.303Z,4.10
2019-04-04T03:24:07.234Z,4.12
2019-04-04T03:25:06.276Z,4.08
2019-04-04T03:26:06.263Z,4.06
2019-04-04T03:27:06.255Z,4.14
2019-04-04T03:28:06.241Z,4.07
2019-04-04T03:29:08.406Z,4.00
2019-04-04T03:30:13.438Z,3.94
2019-04-04T03:31:07.218Z,4.00
2019-04-04T03:32:13.154Z,3.96
2019-04-04T03:33:07.285Z,4.03
2019-04-04T03:34:11.053Z,4.03
2019-04-04T03:35:07.172Z,4.00
2019-04-04T03:36:06.155Z,3.98
2019-04-04T03:37:07.840Z,4.06
2019-04-04T03:38:06.130Z,4.03
2019-04-04T03:39:06.178Z,4.03
2019-04-04T03:40:06.181Z,4.08
2019-04-04T03:41:06.103Z,4.26
2019-04-04T03:42:08.045Z,4.28
2019-04-04T03:43:06.079Z,4.36
2019-04-04T03:44:06.063Z,4.32
2019-04-04T03:45:06.053Z,4.43
2019-04-04T03:46:06.214Z,4.46
2019-04-04T03:47:10.072Z,4.47
2019-04-04T03:48:07.017Z,4.47
2019-04-04T03:49:06.013Z,4.50
2019-04-04T03:50:05.996Z,4.43
2019-04-04T03:51:05.985Z,4.44
2019-04-04T03:52:10.226Z,4.46
2019-04-04T03:53:06.975Z,4.50
2019-04-04T03:54:05.957Z,4.43
2019-04-04T03:55:05.944Z,4.50
2019-04-04T03:56:05.934Z,4.29
2019-04-04T03:57:05.919Z,4.37
2019-04-04T03:58:05.961Z,4.39
2019-04-04T03:59:05.895Z,4.36
2019-04-04T04:00:07.254Z,4.37
2019-04-04T04:01:05.877Z,4.32
2019-04-04T04:02:05.874Z,4.26
2019-04-04T04:03:05.919Z,4.34
2019-04-04T04:04:05.847Z,4.33
2019-04-04T04:05:05.839Z,4.50
2019-04-04T04:06:08.748Z,4.40
2019-04-04T04:07:05.809Z,4.33
2019-04-04T04:08:05.806Z,4.36
2019-04-04T04:09:05.863Z,4.37
2019-04-04T04:10:05.783Z,4.34
2019-04-04T04:11:06.152Z,4.28
2019-04-04T04:12:10.033Z,4.29
2019-04-04T04:13:06.752Z,4.29
2019-04-04T04:14:05.729Z,4.28
2019-04-04T04:15:05.784Z,4.18
2019-04-04T04:16:05.706Z,4.25
2019-04-04T04:17:05.702Z,4.18
2019-04-04T04:18:05.682Z,4.21
2019-04-04T04:19:05.679Z,4.15
2019-04-04T04:20:05.661Z,4.15
2019-04-04T04:21:09.671Z,4.16
2019-04-04T04:22:06.639Z,4.06
2019-04-04T04:23:05.632Z,4.08
2019-04-04T04:24:05.619Z,4.08
2019-04-04T04:25:05.605Z,4.07
2019-04-04T04:26:08.610Z,4.03
2019-04-04T04:27:05.648Z,3.90
2019-04-04T04:28:05.587Z,3.88
2019-04-04T04:29:05.559Z,3.78
2019-04-04T04:30:07.243Z,3.68
2019-04-04T04:31:05.538Z,3.62
2019-04-04T04:32:05.530Z,3.75
2019-04-04T04:33:05.585Z,3.64
2019-04-04T04:34:05.515Z,3.68
2019-04-04T04:35:08.530Z,3.58
2019-04-04T04:36:09.322Z,3.62
2019-04-04T04:37:05.474Z,3.67
2019-04-04T04:38:05.467Z,3.64
2019-04-04T04:39:05.538Z,3.68
2019-04-04T04:40:05.455Z,3.65
2019-04-04T04:41:05.438Z,3.60
2019-04-04T04:42:05.420Z,3.57
2019-04-04T04:43:05.419Z,3.49
2019-04-04T04:44:06.377Z,3.43
2019-04-04T04:45:05.635Z,3.39
2019-04-04T04:46:05.371Z,3.49
2019-04-04T04:47:05.368Z,3.43
2019-04-04T04:48:05.349Z,3.42
2019-04-04T04:49:05.349Z,3.42
2019-04-04T04:50:08.506Z,3.40
2019-04-04T04:51:05.536Z,3.47
2019-04-04T04:52:05.304Z,3.52
2019-04-04T04:53:05.293Z,3.58
2019-04-04T04:54:05.285Z,3.54
2019-04-04T04:55:05.271Z,3.68
2019-04-04T04:56:05.262Z,3.64
2019-04-04T04:57:05.338Z,3.68
2019-04-04T04:58:05.239Z,3.65
2019-04-04T04:59:05.230Z,3.75
2019-04-04T05:00:05.220Z,3.79
2019-04-04T05:01:05.217Z,3.67
2019-04-04T05:02:05.194Z,3.82
2019-04-04T05:03:05.251Z,3.78
2019-04-04T05:04:05.173Z,3.80
2019-04-04T05:05:05.162Z,3.86
2019-04-04T05:06:05.157Z,3.83
2019-04-04T05:07:07.468Z,3.82
2019-04-04T05:08:05.126Z,3.90
2019-04-04T05:09:05.170Z,3.86
2019-04-04T05:10:05.103Z,4.06
2019-04-04T05:11:05.093Z,4.07
2019-04-04T05:12:05.152Z,4.06
2019-04-04T05:13:05.081Z,4.10
2019-04-04T05:14:05.060Z,4.07
2019-04-04T05:15:05.049Z,3.96
2019-04-04T05:16:08.628Z,3.94
2019-04-04T05:17:05.027Z,3.97
2019-04-04T05:18:05.082Z,4.01
2019-04-04T05:19:05.535Z,3.96
2019-04-04T05:20:05.014Z,3.94
2019-04-04T05:21:04.984Z,3.92
2019-04-04T05:22:04.979Z,4.01
2019-04-04T05:23:04.959Z,4.07
2019-04-04T05:24:05.072Z,4.15
2019-04-04T05:25:08.359Z,4.16
2019-04-04T05:26:04.931Z,4.16
2019-04-04T05:27:06.116Z,4.19
2019-04-04T05:28:06.360Z,4.26
2019-04-04T05:29:04.918Z,4.22
2019-04-04T05:30:08.052Z,4.34
2019-04-04T05:31:04.870Z,4.34
2019-04-04T05:32:04.869Z,4.40
2019-04-04T05:33:04.872Z,4.43
2019-04-04T05:34:04.837Z,4.40
2019-04-04T05:35:04.846Z,4.52
2019-04-04T05:36:05.260Z,4.52
2019-04-04T05:37:05.138Z,4.57
2019-04-04T05:38:07.630Z,4.62
2019-04-04T05:39:04.784Z,4.64
2019-04-04T05:40:04.778Z,4.64
2019-04-04T05:41:04.764Z,4.69
2019-04-04T05:42:04.813Z,4.75
2019-04-04T05:43:04.900Z,4.76
2019-04-04T05:44:04.722Z,4.80
2019-04-04T05:45:04.716Z,4.92
2019-04-04T05:46:04.785Z,4.98
2019-04-04T05:47:04.748Z,5.12
2019-04-04T05:48:04.697Z,5.22
2019-04-04T05:49:07.844Z,5.37
2019-04-04T05:50:04.664Z,5.52
2019-04-04T05:51:04.653Z,5.73
2019-04-04T05:52:04.709Z,5.75
2019-04-04T05:53:04.968Z,5.82
2019-04-04T05:54:07.151Z,6.00
2019-04-04T05:55:04.602Z,6.18
2019-04-04T05:56:06.364Z,6.35
2019-04-04T05:57:04.603Z,6.46
2019-04-04T05:58:04.658Z,6.35
2019-04-04T05:59:04.556Z,6.41
2019-04-04T06:00:04.544Z,6.46
2019-04-04T06:01:04.535Z,6.58
2019-04-04T06:02:04.529Z,6.40
2019-04-04T06:03:04.532Z,6.47
2019-04-04T06:04:04.689Z,6.47
2019-04-04T06:05:04.490Z,6.46
2019-04-04T06:06:04.520Z,6.47
2019-04-04T06:07:05.011Z,6.54
2019-04-04T06:08:07.840Z,6.54
2019-04-04T06:09:04.445Z,6.48
2019-04-04T06:10:04.509Z,6.51
2019-04-04T06:11:04.429Z,6.51
2019-04-04T06:12:04.412Z,6.63
2019-04-04T06:13:04.403Z,6.76
2019-04-04T06:14:04.387Z,6.83
2019-04-04T06:15:04.382Z,6.86
2019-04-04T06:16:04.941Z,6.71
2019-04-04T06:17:05.121Z,6.72
2019-04-04T06:18:04.339Z,6.86
2019-04-04T06:19:04.328Z,6.73
2019-04-04T06:20:04.315Z,6.73
2019-04-04T06:21:04.306Z,6.80
2019-04-04T06:22:04.421Z,6.90
2019-04-04T06:23:04.281Z,6.91
2019-04-04T06:24:04.269Z,6.97
2019-04-04T06:25:04.260Z,7.09
2019-04-04T06:26:07.454Z,7.19
2019-04-04T06:27:04.237Z,7.22
2019-04-04T06:28:04.296Z,7.22
2019-04-04T06:29:05.628Z,7.12
2019-04-04T06:30:04.203Z,6.99
2019-04-04T06:31:04.192Z,7.01
2019-04-04T06:32:04.180Z,7.09
2019-04-04T06:33:05.043Z,7.12
2019-04-04T06:34:05.776Z,7.22
2019-04-04T06:35:04.154Z,7.23
2019-04-04T06:36:04.143Z,7.20
2019-04-04T06:37:04.124Z,7.26
2019-04-04T06:38:04.116Z,7.29
2019-04-04T06:39:04.177Z,7.56
2019-04-04T06:40:04.093Z,7.52
2019-04-04T06:41:04.083Z,7.62
2019-04-04T06:42:04.094Z,7.66
2019-04-04T06:43:04.213Z,7.77
2019-04-04T06:44:04.046Z,7.89
2019-04-04T06:45:04.101Z,7.99
2019-04-04T06:46:04.023Z,8.08
2019-04-04T06:47:04.013Z,8.18
2019-04-04T06:48:04.001Z,8.25
2019-04-04T06:49:04.941Z,8.35
2019-04-04T06:50:07.197Z,8.48
2019-04-04T06:51:04.034Z,8.65
2019-04-04T06:52:03.958Z,8.88
2019-04-04T06:53:03.944Z,8.97
2019-04-04T06:54:03.954Z,9.09
2019-04-04T06:55:03.974Z,9.24
2019-04-04T06:56:03.910Z,9.28
2019-04-04T06:57:04.839Z,9.16
2019-04-04T06:58:03.897Z,9.09
2019-04-04T06:59:03.905Z,9.20
2019-04-04T07:00:03.872Z,9.05
2019-04-04T07:01:03.855Z,9.06
2019-04-04T07:02:05.210Z,9.09
2019-04-04T07:03:03.900Z,9.24
2019-04-04T07:04:03.828Z,9.43
2019-04-04T07:05:04.177Z,9.58
2019-04-04T07:06:03.799Z,9.60
2019-04-04T07:07:03.788Z,9.56
2019-04-04T07:08:03.775Z,9.34
2019-04-04T07:09:03.842Z,9.25
2019-04-04T07:10:03.755Z,9.25
2019-04-04T07:11:06.985Z,9.15
2019-04-04T07:12:06.509Z,8.97
2019-04-04T07:13:20.219Z,9.13
2019-04-04T07:14:04.776Z,9.31
2019-04-04T07:15:03.699Z,9.48
2019-04-04T07:16:07.702Z,9.58
2019-04-04T07:17:03.799Z,9.53
2019-04-04T07:18:03.680Z,9.75
2019-04-04T07:19:03.653Z,9.97
2019-04-04T07:20:03.714Z,10.15
2019-04-04T07:21:03.825Z,10.44
2019-04-04T07:22:03.624Z,10.51
2019-04-04T07:23:03.605Z,10.56
2019-04-04T07:24:03.601Z,10.71
2019-04-04T07:25:05.980Z,10.98
2019-04-04T07:26:03.649Z,11.01
2019-04-04T07:27:03.559Z,10.98
2019-04-04T07:28:03.559Z,11.17
2019-04-04T07:29:03.538Z,11.31
2019-04-04T07:30:03.529Z,11.28
2019-04-04T07:31:03.537Z,11.27
2019-04-04T07:32:03.581Z,11.25
2019-04-04T07:33:03.495Z,11.20
2019-04-04T07:34:03.486Z,11.35
2019-04-04T07:35:03.526Z,11.39
2019-04-04T07:36:03.461Z,11.41
2019-04-04T07:37:03.447Z,11.47
2019-04-04T07:38:03.508Z,11.80
2019-04-04T07:39:03.425Z,11.90
2019-04-04T07:40:04.473Z,11.68
2019-04-04T07:41:03.404Z,11.34
2019-04-04T07:42:03.395Z,10.98
2019-04-04T07:43:03.383Z,10.62
2019-04-04T07:44:03.614Z,10.66
2019-04-04T07:45:03.359Z,10.98
2019-04-04T07:46:15.712Z,11.21
2019-04-04T07:47:04.336Z,11.39
2019-04-04T07:48:03.325Z,11.49
2019-04-04T07:49:03.315Z,11.52
2019-04-04T07:50:03.373Z,11.71
2019-04-04T07:51:03.295Z,11.64
2019-04-04T07:52:03.290Z,11.57
2019-04-04T07:53:04.969Z,11.41
2019-04-04T07:54:03.257Z,11.49
2019-04-04T07:55:03.245Z,11.47
2019-04-04T07:56:03.300Z,11.70
2019-04-04T07:57:03.224Z,11.72
2019-04-04T07:58:03.212Z,11.90
2019-04-04T07:59:03.204Z,12.02
2019-04-04T08:00:03.190Z,11.96
2019-04-04T08:01:03.181Z,11.85
2019-04-04T08:02:03.234Z,11.94
2019-04-04T08:03:03.158Z,11.97
2019-04-04T08:04:03.145Z,12.12
2019-04-04T08:05:03.138Z,12.06
2019-04-04T08:06:03.121Z,11.82
2019-04-04T08:07:03.111Z,11.39
2019-04-04T08:08:03.178Z,11.32
2019-04-04T08:09:03.086Z,11.34
2019-04-04T08:10:03.087Z,11.36
2019-04-04T08:11:03.065Z,11.46
2019-04-04T08:12:03.059Z,11.53
2019-04-04T08:13:03.041Z,11.72
2019-04-04T08:14:03.106Z,11.94
2019-04-04T08:15:03.029Z,12.01
2019-04-04T08:16:03.008Z,12.16
2019-04-04T08:17:02.999Z,11.99
2019-04-04T08:18:02.984Z,11.97
2019-04-04T08:19:02.973Z,11.90
2019-04-04T08:20:03.017Z,11.90
2019-04-04T08:21:05.611Z,11.72
2019-04-04T08:22:02.973Z,11.72
2019-04-04T08:23:02.929Z,11.75
2019-04-04T08:24:02.986Z,11.78
2019-04-04T08:25:02.906Z,11.77
2019-04-04T08:26:02.893Z,11.64
2019-04-04T08:27:02.883Z,11.65
2019-04-04T08:28:02.875Z,11.89
2019-04-04T08:29:02.883Z,12.05
2019-04-04T08:30:03.062Z,11.93
2019-04-04T08:31:02.839Z,12.04
2019-04-04T08:32:02.827Z,12.16
2019-04-04T08:33:02.814Z,12.12
2019-04-04T08:34:02.813Z,12.01
2019-04-04T08:35:02.796Z,11.87
2019-04-04T08:36:06.153Z,11.74
2019-04-04T08:37:02.769Z,11.56
2019-04-04T08:38:02.760Z,11.61
2019-04-04T08:39:02.747Z,11.67
2019-04-04T08:40:02.806Z,11.67
2019-04-04T08:41:02.734Z,11.64
2019-04-04T08:42:02.723Z,11.71
2019-04-04T08:43:02.702Z,11.82
2019-04-04T08:44:02.694Z,11.90
2019-04-04T08:45:02.680Z,11.77
2019-04-04T08:46:02.734Z,11.71
2019-04-04T08:47:02.657Z,11.68
2019-04-04T08:48:02.653Z,11.86
2019-04-04T08:49:02.639Z,11.96
2019-04-04T08:50:02.626Z,11.89
2019-04-04T08:51:02.612Z,11.53
2019-04-04T08:52:02.674Z,11.24
2019-04-04T08:53:02.590Z,11.02
2019-04-04T08:54:02.577Z,10.92
2019-04-04T08:55:02.567Z,10.80
2019-04-04T08:56:02.556Z,10.76
2019-04-04T08:57:02.544Z,10.63
2019-04-04T08:58:02.587Z,10.32
2019-04-04T08:59:02.525Z,10.32
2019-04-04T09:00:02.511Z,10.52
2019-04-04T09:01:02.498Z,10.59
2019-04-04T09:02:02.487Z,10.66
2019-04-04T09:03:02.717Z,10.66
2019-04-04T09:04:02.465Z,10.84
2019-04-04T09:05:11.962Z,10.98
2019-04-04T09:06:03.443Z,11.02
2019-04-04T09:07:02.446Z,11.19
2019-04-04T09:08:02.420Z,11.06
2019-04-04T09:09:02.476Z,10.77
2019-04-04T09:10:02.404Z,10.63
2019-04-04T09:11:02.387Z,10.58
2019-04-04T09:12:02.378Z,10.46
2019-04-04T09:13:02.381Z,10.32
2019-04-04T09:14:02.354Z,10.37
2019-04-04T09:15:02.411Z,10.32
2019-04-04T09:16:02.329Z,10.32
2019-04-04T09:17:02.335Z,10.37
2019-04-04T09:18:02.310Z,10.32
2019-04-04T09:19:02.297Z,10.34
2019-04-04T09:20:02.297Z,10.40
2019-04-04T09:21:02.328Z,10.28
2019-04-04T09:22:02.265Z,10.15
2019-04-04T09:23:02.252Z,10.19
2019-04-04T09:24:02.242Z,10.30
2019-04-04T09:25:02.298Z,10.28
2019-04-04T09:26:05.947Z,10.43
2019-04-04T09:27:02.207Z,10.36
2019-04-04T09:28:02.196Z,10.43
2019-04-04T09:29:02.185Z,10.65
2019-04-04T09:30:02.173Z,10.96
2019-04-04T09:31:02.219Z,11.02
2019-04-04T09:32:02.151Z,10.76
2019-04-04T09:33:02.192Z,10.83
2019-04-04T09:34:02.140Z,11.06
2019-04-04T09:35:02.123Z,11.07
2019-04-04T09:36:02.108Z,11.02
2019-04-04T09:37:02.097Z,11.29
2019-04-04T09:38:02.150Z,11.65
2019-04-04T09:39:02.079Z,11.82
2019-04-04T09:40:02.060Z,11.46
2019-04-04T09:41:02.049Z,11.17
2019-04-04T09:42:02.037Z,11.17
2019-04-04T09:43:02.043Z,11.41
2019-04-04T09:44:02.261Z,11.31
2019-04-04T09:45:02.021Z,11.21
2019-04-04T09:46:01.996Z,11.09
2019-04-04T09:47:05.620Z,11.07
2019-04-04T09:48:01.981Z,11.21
2019-04-04T09:49:01.960Z,11.57
2019-04-04T09:50:02.031Z,11.75
2019-04-04T09:51:01.941Z,11.90
2019-04-04T09:52:01.926Z,12.29
2019-04-04T09:53:01.915Z,12.13
2019-04-04T09:54:01.904Z,12.06
2019-04-04T09:55:01.893Z,11.77
2019-04-04T09:56:01.948Z,11.64
2019-04-04T09:57:01.871Z,11.64
2019-04-04T09:58:01.861Z,12.12
2019-04-04T09:59:01.848Z,12.48
2019-04-04T10:00:01.840Z,12.71
2019-04-04T10:01:01.825Z,12.93
2019-04-04T10:02:01.882Z,12.88
2019-04-04T10:03:01.802Z,13.07
2019-04-04T10:04:01.796Z,13.41
2019-04-04T10:05:01.780Z,13.77
2019-04-04T10:06:01.769Z,13.89
2019-04-04T10:07:01.768Z,14.27
2019-04-04T10:08:01.824Z,14.25
2019-04-04T10:09:14.709Z,13.59
2019-04-04T10:10:02.723Z,13.46
2019-04-04T10:11:01.711Z,13.55
2019-04-04T10:12:01.700Z,13.63
2019-04-04T10:13:01.693Z,13.95
2019-04-04T10:14:04.093Z,14.14
2019-04-04T10:15:01.667Z,14.32
2019-04-04T10:16:01.707Z,14.31
2019-04-04T10:17:01.649Z,13.89
2019-04-04T10:18:01.653Z,13.70
2019-04-04T10:19:01.624Z,13.46
2019-04-04T10:20:01.691Z,13.30
2019-04-04T10:21:11.649Z,13.12
2019-04-04T10:22:02.586Z,13.06
2019-04-04T10:23:01.575Z,12.93
2019-04-04T10:24:01.564Z,12.95
2019-04-04T10:25:01.555Z,13.20
2019-04-04T10:26:01.610Z,13.47
2019-04-04T10:27:01.531Z,13.61
2019-04-04T10:28:01.519Z,13.38
2019-04-04T10:29:01.513Z,13.44
2019-04-04T10:30:01.561Z,13.73
2019-04-04T10:31:01.489Z,14.31
2019-04-04T10:32:01.550Z,14.69
2019-04-04T10:33:01.463Z,15.05
2019-04-04T10:34:01.455Z,15.26
2019-04-04T10:35:01.442Z,15.46
2019-04-04T10:36:01.439Z,15.51
2019-04-04T10:37:01.419Z,15.45
2019-04-04T10:38:01.487Z,15.19
2019-04-04T10:39:01.442Z,15.02
2019-04-04T10:40:01.387Z,15.15
2019-04-04T10:41:01.378Z,15.23
2019-04-04T10:42:01.376Z,15.56
2019-04-04T10:43:01.353Z,15.84
2019-04-04T10:44:01.395Z,16.14
2019-04-04T10:45:01.334Z,16.38
2019-04-04T10:46:01.318Z,16.63
2019-04-04T10:47:01.307Z,16.95
2019-04-04T10:48:01.297Z,17.23
2019-04-04T10:49:01.353Z,17.50
2019-04-04T10:50:01.274Z,17.59
2019-04-04T10:51:01.262Z,17.69
2019-04-04T10:52:01.255Z,17.73
2019-04-04T10:53:01.240Z,17.71
2019-04-04T10:54:01.229Z,18.03
2019-04-04T10:55:01.760Z,17.91
2019-04-04T10:56:01.206Z,17.28
2019-04-04T10:57:01.198Z,16.96
2019-04-04T10:58:01.187Z,16.95
2019-04-04T10:59:01.184Z,17.13
2019-04-04T11:00:03.197Z,16.98
2019-04-04T11:01:01.219Z,17.17
2019-04-04T11:02:01.143Z,17.18
2019-04-04T11:03:01.128Z,17.36
2019-04-04T11:04:01.118Z,17.33
2019-04-04T11:05:01.107Z,17.43
2019-04-04T11:06:01.093Z,16.92
2019-04-04T11:07:01.150Z,16.62
2019-04-04T11:08:01.074Z,16.35
2019-04-04T11:09:01.064Z,16.52
2019-04-04T11:10:01.050Z,16.23
2019-04-04T11:11:01.038Z,15.94
2019-04-04T11:12:01.027Z,15.82
2019-04-04T11:13:02.901Z,15.72
2019-04-04T11:14:01.007Z,15.68
2019-04-04T11:15:00.992Z,16.01
2019-04-04T11:16:00.990Z,15.97
2019-04-04T11:17:00.973Z,16.71
2019-04-04T11:18:00.959Z,18.02
2019-04-04T11:19:01.015Z,18.40
2019-04-04T11:20:00.939Z,19.40
2019-04-04T11:21:00.924Z,19.57
2019-04-04T11:22:00.915Z,20.35
2019-04-04T11:23:00.904Z,21.19
2019-04-04T11:24:00.896Z,20.91
2019-04-04T11:25:00.948Z,20.27
2019-04-04T11:26:00.873Z,21.08
2019-04-04T11:27:00.859Z,21.67
2019-04-04T11:28:00.850Z,21.98
2019-04-04T11:29:00.838Z,21.39
2019-04-04T11:30:00.826Z,21.19
2019-04-04T11:31:00.889Z,21.48
2019-04-04T11:32:00.804Z,20.65
2019-04-04T11:33:00.793Z,20.98
2019-04-04T11:34:00.780Z,21.39
2019-04-04T11:35:00.771Z,22.23
2019-04-04T11:36:00.760Z,22.29
2019-04-04T11:37:00.961Z,22.77
2019-04-04T11:38:00.737Z,23.46
2019-04-04T11:39:00.727Z,24.49
2019-04-04T11:40:00.717Z,24.90
2019-04-04T11:41:00.704Z,25.53
2019-04-04T11:42:00.693Z,25.15
2019-04-04T11:43:00.897Z,25.17
2019-04-04T11:44:00.673Z,24.07
2019-04-04T11:45:00.661Z,22.78
2019-04-04T11:46:00.651Z,22.50
2019-04-04T11:47:00.642Z,21.67
2019-04-04T11:48:00.627Z,21.60
2019-04-04T11:49:00.696Z,21.92
2019-04-04T11:50:00.612Z,20.91
2019-04-04T11:51:00.612Z,20.49
2019-04-04T11:52:00.587Z,20.34
2019-04-04T11:53:00.574Z,20.24
2019-04-04T11:54:00.564Z,20.51
2019-04-04T11:55:00.632Z,20.06
2019-04-04T11:56:00.541Z,19.42
2019-04-04T11:57:00.541Z,19.50
2019-04-04T11:58:00.528Z,19.55
2019-04-04T11:59:00.515Z,20.06
2019-04-04T12:00:00.497Z,19.91
2019-04-04T12:01:00.563Z,20.47
2019-04-04T12:02:00.499Z,21.09
2019-04-04T12:03:00.469Z,21.26
2019-04-04T12:04:00.456Z,21.20
2019-04-04T12:05:00.443Z,21.34
2019-04-04T12:06:00.434Z,21.39
2019-04-04T12:07:00.488Z,21.79
2019-04-04T12:08:00.410Z,21.98
2019-04-04T12:09:00.402Z,21.74
2019-04-04T12:10:07.193Z,21.41
2019-04-04T12:11:01.382Z,20.69
2019-04-04T12:12:00.367Z,20.08
2019-04-04T12:13:00.434Z,19.47
2019-04-04T12:14:00.345Z,19.94
2019-04-04T12:15:00.348Z,19.08
2019-04-04T12:16:00.324Z,19.14
2019-04-04T12:17:00.315Z,19.01
2019-04-04T12:18:00.302Z,19.38
2019-04-04T12:19:00.508Z,20.16
2019-04-04T12:20:00.282Z,20.13
2019-04-04T12:21:00.269Z,19.68
2019-04-04T12:22:00.258Z,17.95
2019-04-04T12:23:00.247Z,17.25
2019-04-04T12:24:00.241Z,16.77
2019-04-04T12:25:00.387Z,16.62
2019-04-04T12:26:00.213Z,16.68
2019-04-04T12:27:00.202Z,16.52
2019-04-04T12:28:00.192Z,16.14
2019-04-04T12:29:00.189Z,15.59
2019-04-04T12:30:00.170Z,15.60
2019-04-04T12:31:00.371Z,15.51
2019-04-04T12:32:00.149Z,15.43
2019-04-04T12:33:00.136Z,15.63
2019-04-04T12:34:02.082Z,15.74
2019-04-04T12:35:00.113Z,15.93
2019-04-04T12:36:00.105Z,15.66
2019-04-04T12:37:00.306Z,15.72
2019-04-04T12:38:00.080Z,15.63
2019-04-04T12:39:00.070Z,15.76
2019-04-04T12:40:00.058Z,15.96
2019-04-04T12:41:00.051Z,15.67
2019-04-04T12:42:00.040Z,15.52
2019-04-04T12:43:00.079Z,15.41
2019-04-04T12:44:00.015Z,15.61
2019-04-04T12:45:00.002Z,15.70
2019-04-04T12:45:59.990Z,15.97
2019-04-04T12:46:59.979Z,16.09
2019-04-04T12:48:00.258Z,15.92
2019-04-04T12:48:59.956Z,15.86
2019-04-04T12:49:59.946Z,16.06
2019-04-04T12:50:59.935Z,16.33
2019-04-04T12:51:59.922Z,16.71
2019-04-04T12:52:59.911Z,16.83
2019-04-04T12:53:59.957Z,16.60
2019-04-04T12:54:59.890Z,16.70
2019-04-04T12:55:59.934Z,16.89
2019-04-04T12:56:59.926Z,17.23
2019-04-04T12:57:59.855Z,17.47
2019-04-04T12:58:59.899Z,17.69
2019-04-04T12:59:59.835Z,17.57
2019-04-04T13:00:59.825Z,18.02
2019-04-04T13:01:59.822Z,17.25
2019-04-04T13:02:59.801Z,16.48
2019-04-04T13:03:59.843Z,16.04
2019-04-04T13:04:59.785Z,16.00
2019-04-04T13:05:59.765Z,16.12